Time;durP1;ratioP1;P1;durP2;ratioP2;P2;SDS_P1;SDS_P2;PMS_P1;PMS_P2;Temp;Humidity;BMP_temperature;BMP_pressure;BME280_temperature;BME280_humidity;BME280_pressure;Samples;Min_cycle;Max_cycle;Signal;HPM_P1;HPM_P2
2021/04/30 00:01:15;;;;;;;;;;;7.40;89.10;;;;;;5056261;28;20058;-73
2021/04/30 00:03:41;;;;;;;;;;;7.40;87.80;;;;;;5043438;28;19948;-73
2021/04/30 00:06:06;;;;;;;;;;;7.40;88.30;;;;;;5050336;28;19998;-74
2021/04/30 00:08:32;;;;;;;;;;;7.40;87.90;;;;;;5051406;28;19917;-74
2021/04/30 00:10:58;;;;;;;;;;;7.30;88.20;;;;;;5054550;28;19985;-73
2021/04/30 00:13:24;;;;;;;;;;;7.30;88.30;;;;;;5055282;28;19964;-73
2021/04/30 00:15:49;;;;;;;;;;;7.30;88.20;;;;;;5054647;28;20402;-74
2021/04/30 00:18:15;;;;;;;;;;;7.30;88.00;;;;;;5055998;28;19924;-74
2021/04/30 00:20:50;;;;;;;;;;;7.30;88.80;;;;;;5037616;28;20237;-74
2021/04/30 00:23:15;;;;;;;;;;;7.20;89.00;;;;;;5055237;28;19920;-74
2021/04/30 00:25:41;;;;;;;;;;;7.20;89.40;;;;;;5037384;28;20025;-73
2021/04/30 00:28:07;;;;;;;;;;;7.20;88.80;;;;;;5055216;28;20016;-73
2021/04/30 00:30:33;;;;;;;;;;;7.10;89.10;;;;;;5055222;28;19974;-73
2021/04/30 00:32:58;;;;;;;;;;;7.10;89.50;;;;;;5049250;28;19974;-72
2021/04/30 00:35:24;;;;;;;;;;;7.10;89.50;;;;;;5055982;28;19913;-74
2021/04/30 00:37:50;;;;;;;;;;;7.00;89.90;;;;;;5054411;28;20369;-74
2021/04/30 00:40:15;;;;;;;;;;;7.00;90.00;;;;;;5038155;28;19917;-73
2021/04/30 00:42:41;;;;;;;;;;;7.00;90.20;;;;;;5056018;28;19955;-73
2021/04/30 00:45:08;;;;;;;;;;;7.00;90.30;;;;;;5055610;28;20256;-73
2021/04/30 00:47:37;;;;;;;;;;;6.90;90.70;;;;;;5037197;28;19962;-74
2021/04/30 00:50:06;;;;;;;;;;;6.90;90.40;;;;;;5055096;28;19916;-74
2021/04/30 00:52:32;;;;;;;;;;;6.80;90.10;;;;;;5036838;28;20285;-74
2021/04/30 00:55:01;;;;;;;;;;;6.90;89.80;;;;;;5037688;28;20000;-74
2021/04/30 00:57:27;;;;;;;;;;;6.80;89.90;;;;;;5038290;28;19913;-74
2021/04/30 00:59:53;;;;;;;;;;;6.80;89.80;;;;;;5036905;28;19956;-74
2021/04/30 01:02:19;;;;;;;;;;;6.80;90.10;;;;;;5054617;28;19940;-74
2021/04/30 01:04:44;;;;;;;;;;;6.80;90.50;;;;;;5054663;28;19919;-74
2021/04/30 01:07:10;;;;;;;;;;;6.80;90.60;;;;;;5035984;28;19913;-74
2021/04/30 01:09:35;;;;;;;;;;;6.70;90.60;;;;;;5055561;28;20015;-74
2021/04/30 01:12:01;;;;;;;;;;;6.80;90.60;;;;;;5055782;28;19919;-74
2021/04/30 01:14:28;;;;;;;;;;;6.80;90.60;;;;;;5037683;28;19913;-74
2021/04/30 01:16:53;;;;;;;;;;;6.80;90.50;;;;;;5054571;28;19920;-74
2021/04/30 01:19:20;;;;;;;;;;;6.70;90.80;;;;;;5054020;28;19958;-74
2021/04/30 01:21:49;;;;;;;;;;;6.60;90.90;;;;;;5052982;28;19912;-74
2021/04/30 01:24:15;;;;;;;;;;;6.70;90.70;;;;;;5054671;28;19936;-74
2021/04/30 01:26:42;;;;;;;;;;;6.70;90.40;;;;;;5059438;28;20248;-73
2021/04/30 01:29:07;;;;;;;;;;;6.70;90.50;;;;;;5055358;28;20279;-74
2021/04/30 01:31:35;;;;;;;;;;;6.70;90.20;;;;;;5055895;28;19916;-73
2021/04/30 01:34:01;;;;;;;;;;;6.70;89.50;;;;;;5041925;28;20338;-74
2021/04/30 01:36:27;;;;;;;;;;;6.60;90.10;;;;;;5055046;28;19916;-74
2021/04/30 01:38:53;;;;;;;;;;;6.60;90.50;;;;;;5057356;28;19964;-74
2021/04/30 01:41:20;;;;;;;;;;;6.60;90.80;;;;;;5058840;28;20213;-75
2021/04/30 01:43:45;;;;;;;;;;;6.60;90.90;;;;;;5061513;28;19913;-74
2021/04/30 01:46:11;;;;;;;;;;;6.50;90.80;;;;;;5032623;28;19913;-74
2021/04/30 01:48:36;;;;;;;;;;;6.50;90.90;;;;;;5055934;28;19924;-75
2021/04/30 01:51:02;;;;;;;;;;;6.50;91.00;;;;;;5055924;28;19913;-74
2021/04/30 01:53:29;;;;;;;;;;;6.50;91.10;;;;;;5053715;28;19948;-74
2021/04/30 01:55:55;;;;;;;;;;;6.50;90.80;;;;;;5054661;28;19960;-73
2021/04/30 01:58:21;;;;;;;;;;;6.50;90.70;;;;;;5053906;28;20280;-73
2021/04/30 02:00:46;;;;;;;;;;;6.50;90.80;;;;;;5056705;28;19919;-72
2021/04/30 02:03:12;;;;;;;;;;;6.40;90.70;;;;;;5037027;28;19921;-74
2021/04/30 02:05:39;;;;;;;;;;;6.40;91.10;;;;;;5054694;28;20051;-75
2021/04/30 02:08:09;;;;;;;;;;;6.30;91.30;;;;;;5056445;28;20198;-75
2021/04/30 02:10:35;;;;;;;;;;;6.40;91.40;;;;;;5038317;28;20003;-74
2021/04/30 02:13:02;;;;;;;;;;;6.40;91.60;;;;;;5065245;28;19913;-74
2021/04/30 02:15:28;;;;;;;;;;;6.30;91.40;;;;;;5053693;28;19927;-74
2021/04/30 02:17:54;;;;;;;;;;;6.30;91.50;;;;;;5040803;28;20342;-74
2021/04/30 02:20:20;;;;;;;;;;;6.30;91.60;;;;;;5054687;28;19913;-74
2021/04/30 02:22:46;;;;;;;;;;;6.40;91.90;;;;;;5036860;28;19919;-73
2021/04/30 02:25:13;;;;;;;;;;;6.40;91.80;;;;;;5036481;28;19913;-75
2021/04/30 02:27:38;;;;;;;;;;;6.40;91.90;;;;;;5049813;28;19920;-74
2021/04/30 02:30:05;;;;;;;;;;;6.40;91.90;;;;;;5034783;28;20023;-74
2021/04/30 02:32:31;;;;;;;;;;;6.30;92.10;;;;;;5054968;28;20019;-74
2021/04/30 02:34:56;;;;;;;;;;;6.20;92.20;;;;;;5054838;28;20007;-74
2021/04/30 02:37:24;;;;;;;;;;;6.20;92.40;;;;;;5053409;28;19919;-73
2021/04/30 02:39:49;;;;;;;;;;;6.20;92.50;;;;;;5054810;28;19913;-74
2021/04/30 02:42:15;;;;;;;;;;;6.20;92.30;;;;;;5054813;28;19923;-74
2021/04/30 02:44:40;;;;;;;;;;;6.20;92.30;;;;;;5037254;28;19948;-74
2021/04/30 02:47:06;;;;;;;;;;;6.20;92.10;;;;;;5059270;28;19963;-75
2021/04/30 02:49:45;;;;;;;;;;;6.10;91.90;;;;;;5053754;28;19917;-74
2021/04/30 02:52:12;;;;;;;;;;;6.10;92.20;;;;;;5036293;28;20317;-73
2021/04/30 02:54:37;;;;;;;;;;;6.10;92.60;;;;;;5036510;28;20199;-74
2021/04/30 02:57:03;;;;;;;;;;;6.10;92.00;;;;;;5054635;28;19920;-73
2021/04/30 02:59:29;;;;;;;;;;;6.10;91.60;;;;;;5053723;28;19919;-74
2021/04/30 03:01:55;;;;;;;;;;;6.10;91.30;;;;;;5054061;28;19921;-73
2021/04/30 03:04:20;;;;;;;;;;;6.10;92.10;;;;;;5036573;28;19959;-73
2021/04/30 03:06:46;;;;;;;;;;;6.00;92.30;;;;;;5052522;28;19913;-74
2021/04/30 03:09:11;;;;;;;;;;;6.10;92.00;;;;;;5052571;28;19970;-74
2021/04/30 03:11:37;;;;;;;;;;;6.10;92.20;;;;;;5054476;28;19924;-74
2021/04/30 03:14:03;;;;;;;;;;;6.10;92.40;;;;;;5054070;28;19913;-74
2021/04/30 03:16:31;;;;;;;;;;;6.20;92.20;;;;;;5053066;28;19917;-74
2021/04/30 03:18:57;;;;;;;;;;;6.20;91.90;;;;;;5054382;28;19913;-74
2021/04/30 03:21:23;;;;;;;;;;;6.20;92.10;;;;;;5037323;28;19924;-74
2021/04/30 03:23:48;;;;;;;;;;;6.20;91.80;;;;;;5039152;28;19913;-74
2021/04/30 03:26:14;;;;;;;;;;;6.20;91.90;;;;;;5057538;28;19948;-74
2021/04/30 03:28:39;;;;;;;;;;;6.30;91.90;;;;;;5039220;28;20233;-73
2021/04/30 03:31:05;;;;;;;;;;;6.30;92.30;;;;;;5057528;28;19920;-75
2021/04/30 03:33:31;;;;;;;;;;;6.20;92.30;;;;;;5056508;28;19917;-74
2021/04/30 03:35:56;;;;;;;;;;;6.20;92.20;;;;;;5056424;28;20087;-74
2021/04/30 03:38:22;;;;;;;;;;;6.10;92.80;;;;;;5056608;28;19917;-74
2021/04/30 03:40:47;;;;;;;;;;;6.10;93.20;;;;;;5057759;28;20328;-74
2021/04/30 03:43:13;;;;;;;;;;;6.10;93.00;;;;;;5055177;28;19913;-74
2021/04/30 03:45:38;;;;;;;;;;;6.00;93.40;;;;;;5056492;28;19913;-74
2021/04/30 03:48:04;;;;;;;;;;;6.00;94.00;;;;;;5057798;28;20305;-74
2021/04/30 03:50:30;;;;;;;;;;;6.00;94.00;;;;;;5057585;28;19916;-74
2021/04/30 03:52:55;;;;;;;;;;;5.90;94.30;;;;;;5055902;28;19924;-74
2021/04/30 03:55:21;;;;;;;;;;;5.90;94.60;;;;;;5056883;28;19999;-74
2021/04/30 03:57:47;;;;;;;;;;;5.90;95.20;;;;;;5039756;28;19913;-74
2021/04/30 04:00:12;;;;;;;;;;;5.90;94.80;;;;;;5057054;28;19992;-75
2021/04/30 04:02:38;;;;;;;;;;;5.90;95.00;;;;;;5056948;28;19912;-75
2021/04/30 04:05:04;;;;;;;;;;;5.90;95.40;;;;;;5056358;28;19936;-75
2021/04/30 04:07:29;;;;;;;;;;;5.90;95.30;;;;;;5037857;28;19913;-74
2021/04/30 04:09:55;;;;;;;;;;;5.90;95.00;;;;;;5056483;28;19927;-74
2021/04/30 04:12:20;;;;;;;;;;;5.90;95.20;;;;;;5054524;28;19913;-74
2021/04/30 04:14:46;;;;;;;;;;;5.80;95.30;;;;;;5054633;28;19920;-75
2021/04/30 04:17:16;;;;;;;;;;;5.80;95.70;;;;;;5051546;28;19916;-75
2021/04/30 04:19:42;;;;;;;;;;;5.80;95.20;;;;;;5076081;28;19965;-74
2021/04/30 04:22:07;;;;;;;;;;;5.80;95.30;;;;;;5075305;28;20007;-74
2021/04/30 04:24:33;;;;;;;;;;;5.80;95.80;;;;;;5074973;28;20610;-75
2021/04/30 04:26:58;;;;;;;;;;;5.90;95.30;;;;;;5075308;28;19912;-75
2021/04/30 04:29:24;;;;;;;;;;;5.90;95.20;;;;;;5076343;28;19920;-74
2021/04/30 04:31:49;;;;;;;;;;;5.90;95.40;;;;;;5058488;28;19919;-74
2021/04/30 04:34:15;;;;;;;;;;;5.80;95.30;;;;;;5057528;28;19923;-75
2021/04/30 04:36:40;;;;;;;;;;;5.80;95.40;;;;;;5057364;28;19920;-73
2021/04/30 04:39:06;;;;;;;;;;;5.70;95.40;;;;;;5076124;28;19955;-74
2021/04/30 04:41:31;;;;;;;;;;;5.70;95.20;;;;;;5076350;28;19923;-74
2021/04/30 04:43:57;;;;;;;;;;;5.70;95.60;;;;;;5076109;28;19912;-75
2021/04/30 04:46:23;;;;;;;;;;;5.70;95.30;;;;;;5073353;28;19916;-74
2021/04/30 04:48:48;;;;;;;;;;;5.70;95.50;;;;;;5075706;28;19922;-74
2021/04/30 04:51:14;;;;;;;;;;;5.80;95.30;;;;;;5075750;28;19963;-73
2021/04/30 04:53:39;;;;;;;;;;;5.80;95.20;;;;;;5070355;28;20007;-73
2021/04/30 04:56:05;;;;;;;;;;;5.90;95.30;;;;;;5073070;28;19919;-73
2021/04/30 04:58:30;;;;;;;;;;;5.90;95.40;;;;;;5075226;28;19912;-74
2021/04/30 05:00:56;;;;;;;;;;;5.90;95.30;;;;;;5074589;28;19916;-73
2021/04/30 05:03:22;;;;;;;;;;;5.90;95.40;;;;;;5057125;28;19916;-75
2021/04/30 05:05:47;;;;;;;;;;;6.00;95.50;;;;;;5069719;28;20325;-75
2021/04/30 05:08:13;;;;;;;;;;;6.00;95.30;;;;;;5074303;28;19916;-75
2021/04/30 05:10:38;;;;;;;;;;;6.20;95.50;;;;;;5054981;28;19927;-73
2021/04/30 05:13:04;;;;;;;;;;;6.20;95.50;;;;;;5071179;28;19920;-74
2021/04/30 05:15:29;;;;;;;;;;;6.10;95.30;;;;;;5051676;28;19958;-75
2021/04/30 05:17:55;;;;;;;;;;;6.00;95.40;;;;;;5057657;28;19923;-73
2021/04/30 05:20:20;;;;;;;;;;;5.90;95.90;;;;;;5057208;28;19960;-74
2021/04/30 05:22:46;;;;;;;;;;;5.80;95.70;;;;;;5073714;28;19943;-75
2021/04/30 05:25:12;;;;;;;;;;;5.80;95.50;;;;;;5075211;28;19999;-74
2021/04/30 05:27:41;;;;;;;;;;;5.80;95.30;;;;;;5075054;28;19916;-74
2021/04/30 05:30:08;;;;;;;;;;;5.90;95.80;;;;;;5075125;28;20301;-74
2021/04/30 05:32:33;;;;;;;;;;;6.10;95.80;;;;;;5073651;28;20015;-73
2021/04/30 05:35:00;;;;;;;;;;;6.30;96.00;;;;;;5073681;28;20003;-75
2021/04/30 05:37:26;;;;;;;;;;;6.40;96.00;;;;;;5072177;28;19920;-75
2021/04/30 05:39:51;;;;;;;;;;;6.50;95.80;;;;;;5075148;28;20263;-74
2021/04/30 05:42:17;;;;;;;;;;;6.60;95.40;;;;;;5073063;28;20275;-75
2021/04/30 05:44:43;;;;;;;;;;;6.80;95.60;;;;;;5074392;28;19916;-75
2021/04/30 05:47:08;;;;;;;;;;;7.00;95.40;;;;;;5073416;28;19952;-75
2021/04/30 05:49:34;;;;;;;;;;;7.30;95.10;;;;;;5060429;28;20317;-75
2021/04/30 05:51:59;;;;;;;;;;;7.70;95.00;;;;;;5073696;28;19919;-75
2021/04/30 05:54:25;;;;;;;;;;;7.80;93.20;;;;;;5075167;28;20003;-74
2021/04/30 05:56:50;;;;;;;;;;;7.80;93.00;;;;;;5074646;28;19916;-75
2021/04/30 05:59:16;;;;;;;;;;;8.00;92.50;;;;;;5074711;28;19916;-74
2021/04/30 06:01:41;;;;;;;;;;;8.20;91.70;;;;;;5071512;28;19913;-75
2021/04/30 06:04:07;;;;;;;;;;;8.40;91.30;;;;;;5072473;28;20003;-75
2021/04/30 06:06:33;;;;;;;;;;;8.70;89.40;;;;;;5056350;28;20007;-73
2021/04/30 06:08:58;;;;;;;;;;;8.90;89.70;;;;;;5056947;28;19982;-76
2021/04/30 06:11:24;;;;;;;;;;;9.00;89.60;;;;;;5071248;28;19969;-75
2021/04/30 06:13:49;;;;;;;;;;;9.00;89.40;;;;;;5074517;28;20011;-75
2021/04/30 06:16:15;;;;;;;;;;;9.20;88.80;;;;;;5054912;28;19916;-74
2021/04/30 06:18:40;;;;;;;;;;;9.40;88.00;;;;;;5074921;28;19966;-74
2021/04/30 06:21:06;;;;;;;;;;;9.40;86.80;;;;;;5071377;28;20301;-76
2021/04/30 06:23:31;;;;;;;;;;;9.50;87.30;;;;;;5054496;28;19999;-75
2021/04/30 06:25:57;;;;;;;;;;;9.50;87.40;;;;;;5073813;28;19912;-75
2021/04/30 06:28:23;;;;;;;;;;;9.10;88.30;;;;;;5074933;28;19913;-75
2021/04/30 06:30:50;;;;;;;;;;;8.80;89.30;;;;;;5068333;28;19925;-75
2021/04/30 06:33:16;;;;;;;;;;;8.50;89.90;;;;;;5072919;28;20363;-75
2021/04/30 06:35:41;;;;;;;;;;;8.20;90.50;;;;;;5074698;28;19944;-74
2021/04/30 06:38:06;;;;;;;;;;;7.80;91.80;;;;;;5068682;28;19924;-75
2021/04/30 06:40:35;;;;;;;;;;;7.70;91.90;;;;;;5074886;28;19920;-75
2021/04/30 06:43:01;;;;;;;;;;;7.60;92.30;;;;;;5074349;28;19935;-75
2021/04/30 06:45:26;;;;;;;;;;;7.60;92.50;;;;;;5055689;28;19920;-77
2021/04/30 06:47:52;;;;;;;;;;;7.70;92.60;;;;;;5074406;28;20010;-75
2021/04/30 06:50:17;;;;;;;;;;;7.70;92.50;;;;;;5071792;28;19971;-75
2021/04/30 06:52:43;;;;;;;;;;;7.70;92.40;;;;;;5064145;28;19960;-74
2021/04/30 06:55:09;;;;;;;;;;;7.90;92.60;;;;;;5074501;28;19916;-74
2021/04/30 06:57:34;;;;;;;;;;;7.90;92.50;;;;;;5077250;28;19916;-74
2021/04/30 07:00:00;;;;;;;;;;;8.10;92.20;;;;;;5077173;28;19981;-74
2021/04/30 07:02:25;;;;;;;;;;;8.20;91.50;;;;;;5078286;28;19913;-75
2021/04/30 07:04:51;;;;;;;;;;;8.40;91.10;;;;;;5071909;28;19920;-74
2021/04/30 07:07:16;;;;;;;;;;;8.50;91.20;;;;;;5075480;28;19966;-75
2021/04/30 07:09:42;;;;;;;;;;;8.90;90.50;;;;;;5076139;28;19939;-75
2021/04/30 07:12:08;;;;;;;;;;;9.10;88.40;;;;;;5077862;28;19920;-75
2021/04/30 07:14:34;;;;;;;;;;;9.20;88.50;;;;;;5057254;28;19932;-76
2021/04/30 07:17:01;;;;;;;;;;;9.40;88.50;;;;;;5057961;28;19916;-75
2021/04/30 07:19:26;;;;;;;;;;;9.60;87.90;;;;;;5076817;28;19912;-75
2021/04/30 07:21:52;;;;;;;;;;;9.70;87.00;;;;;;5076475;28;19916;-75
2021/04/30 07:24:18;;;;;;;;;;;9.90;85.50;;;;;;5077475;28;19923;-73
2021/04/30 07:26:43;;;;;;;;;;;9.90;85.70;;;;;;5076113;28;19936;-76
2021/04/30 07:29:09;;;;;;;;;;;9.90;85.40;;;;;;5076019;28;19943;-74
2021/04/30 07:31:34;;;;;;;;;;;10.00;85.50;;;;;;5075695;28;19912;-76
2021/04/30 07:34:00;;;;;;;;;;;9.90;86.20;;;;;;5074846;28;19919;-75
2021/04/30 07:36:25;;;;;;;;;;;9.70;87.00;;;;;;5058892;28;20297;-74
2021/04/30 07:38:51;;;;;;;;;;;9.50;87.00;;;;;;5076969;28;19954;-74
2021/04/30 07:41:17;;;;;;;;;;;9.20;88.00;;;;;;5077786;28;19919;-74
2021/04/30 07:43:42;;;;;;;;;;;9.10;88.90;;;;;;5076316;28;19926;-73
2021/04/30 07:46:08;;;;;;;;;;;9.30;88.80;;;;;;5059497;28;19912;-72
2021/04/30 07:48:33;;;;;;;;;;;9.90;87.10;;;;;;5059742;28;19912;-73
2021/04/30 07:51:01;;;;;;;;;;;10.00;86.30;;;;;;5076526;28;19947;-73
2021/04/30 07:53:26;;;;;;;;;;;9.80;86.90;;;;;;5075910;28;19912;-74
2021/04/30 07:55:52;;;;;;;;;;;9.70;87.30;;;;;;5059539;28;19969;-76
2021/04/30 07:58:19;;;;;;;;;;;9.80;86.50;;;;;;5059555;28;19999;-75
2021/04/30 08:00:48;;;;;;;;;;;9.60;87.20;;;;;;5076833;28;19920;-74
2021/04/30 08:03:13;;;;;;;;;;;9.70;87.40;;;;;;5077413;28;19920;-75
2021/04/30 08:05:39;;;;;;;;;;;9.90;85.60;;;;;;5076782;28;20217;-74
2021/04/30 08:08:04;;;;;;;;;;;9.40;87.30;;;;;;5075532;28;19917;-75
2021/04/30 08:10:31;;;;;;;;;;;9.40;87.50;;;;;;5074414;28;19924;-75
2021/04/30 08:12:57;;;;;;;;;;;9.40;87.20;;;;;;5077244;28;19913;-73
2021/04/30 08:15:23;;;;;;;;;;;9.30;88.00;;;;;;5076227;28;19995;-75
2021/04/30 08:17:49;;;;;;;;;;;9.40;88.00;;;;;;5058902;28;19928;-73
2021/04/30 08:20:14;;;;;;;;;;;9.60;87.20;;;;;;5075707;28;19917;-75
2021/04/30 08:22:42;;;;;;;;;;;9.60;87.20;;;;;;5065348;28;19921;-74
2021/04/30 08:25:12;;;;;;;;;;;9.80;87.30;;;;;;5070322;28;19920;-73
2021/04/30 08:27:38;;;;;;;;;;;10.00;86.50;;;;;;5060878;28;19919;-73
2021/04/30 08:30:04;;;;;;;;;;;10.10;85.60;;;;;;5058201;28;20011;-73
2021/04/30 08:32:29;;;;;;;;;;;10.30;85.80;;;;;;5073925;28;19982;-74
2021/04/30 08:34:55;;;;;;;;;;;10.40;85.00;;;;;;5073840;28;20300;-73
2021/04/30 08:37:20;;;;;;;;;;;10.60;85.50;;;;;;5076054;28;19912;-74
2021/04/30 08:39:46;;;;;;;;;;;11.00;83.90;;;;;;5076347;28;19913;-73
2021/04/30 08:42:11;;;;;;;;;;;11.30;83.80;;;;;;5071791;28;19921;-74
2021/04/30 08:44:38;;;;;;;;;;;11.60;82.60;;;;;;5074063;28;20213;-73
2021/04/30 08:47:07;;;;;;;;;;;12.00;81.30;;;;;;5074677;28;20196;-73
2021/04/30 08:49:34;;;;;;;;;;;12.50;79.80;;;;;;5056377;28;19920;-74
2021/04/30 08:51:59;;;;;;;;;;;12.90;78.00;;;;;;5069458;28;19916;-73
2021/04/30 08:54:29;;;;;;;;;;;13.00;77.30;;;;;;5058210;28;20049;-74
2021/04/30 08:57:00;;;;;;;;;;;12.90;76.80;;;;;;5072130;28;20066;-73
2021/04/30 08:59:26;;;;;;;;;;;13.00;76.60;;;;;;5046679;28;19974;-73
2021/04/30 09:01:52;;;;;;;;;;;13.30;76.10;;;;;;5066915;28;19948;-74
2021/04/30 09:04:18;;;;;;;;;;;14.10;74.50;;;;;;5066836;28;19999;-73
2021/04/30 09:06:45;;;;;;;;;;;15.60;72.00;;;;;;5067118;28;20137;-73
2021/04/30 09:09:12;;;;;;;;;;;16.40;69.10;;;;;;5071692;28;20274;-73
2021/04/30 09:11:48;;;;;;;;;;;16.90;67.40;;;;;;5069602;28;19952;-73
2021/04/30 09:14:35;;;;;;;;;;;17.20;67.40;;;;;;5066514;28;19926;-73
2021/04/30 09:17:03;;;;;;;;;;;17.40;66.40;;;;;;5064406;28;19964;-72
2021/04/30 09:19:33;;;;;;;;;;;16.70;67.00;;;;;;5053822;28;19913;-72
2021/04/30 09:22:03;;;;;;;;;;;15.80;68.60;;;;;;5053660;28;19908;-73
2021/04/30 09:24:29;;;;;;;;;;;15.00;70.50;;;;;;5073486;28;19913;-72
2021/04/30 09:26:55;;;;;;;;;;;14.00;72.50;;;;;;5071508;28;20015;-73
2021/04/30 09:29:21;;;;;;;;;;;13.00;75.10;;;;;;5057847;28;20325;-73
2021/04/30 09:31:48;;;;;;;;;;;12.50;76.70;;;;;;5070364;28;19946;-73
2021/04/30 09:34:23;;;;;;;;;;;12.30;77.70;;;;;;5057734;28;19919;-73
2021/04/30 09:37:11;;;;;;;;;;;11.90;77.90;;;;;;5071615;28;19924;-74
2021/04/30 09:39:51;;;;;;;;;;;11.50;79.30;;;;;;5056222;28;19912;-73
2021/04/30 09:42:18;;;;;;;;;;;11.70;80.00;;;;;;5074564;28;19916;-73
2021/04/30 09:44:45;;;;;;;;;;;12.20;78.20;;;;;;5072613;28;20305;-72
2021/04/30 09:47:21;;;;;;;;;;;12.40;78.00;;;;;;5055770;28;19919;-73
2021/04/30 09:49:49;;;;;;;;;;;12.30;77.30;;;;;;5075722;28;20054;-72
2021/04/30 09:52:15;;;;;;;;;;;12.20;78.40;;;;;;5066927;28;20010;-73
2021/04/30 09:54:41;;;;;;;;;;;12.50;77.20;;;;;;5053978;28;19912;-72
2021/04/30 09:57:13;;;;;;;;;;;12.90;76.40;;;;;;5045650;28;19913;-73
2021/04/30 09:59:40;;;;;;;;;;;13.10;75.00;;;;;;5065054;28;19927;-74
2021/04/30 10:02:14;;;;;;;;;;;12.90;75.20;;;;;;5051243;28;19965;-73
2021/04/30 10:04:42;;;;;;;;;;;12.80;75.60;;;;;;5064267;28;20241;-72
2021/04/30 10:07:08;;;;;;;;;;;12.40;76.40;;;;;;5065268;28;20011;-72
2021/04/30 10:09:34;;;;;;;;;;;12.30;76.90;;;;;;5067961;28;20015;-74
2021/04/30 10:12:16;;;;;;;;;;;11.90;77.70;;;;;;5074037;28;20251;-73
2021/04/30 10:14:43;;;;;;;;;;;11.60;77.60;;;;;;5074655;28;19956;-74
2021/04/30 10:17:08;;;;;;;;;;;11.20;78.80;;;;;;5052305;28;19921;-73
2021/04/30 10:19:34;;;;;;;;;;;10.90;79.60;;;;;;5059579;28;19989;-74
2021/04/30 10:22:00;;;;;;;;;;;10.80;80.00;;;;;;5060442;28;20032;-74
2021/04/30 10:24:26;;;;;;;;;;;10.50;81.20;;;;;;5041338;28;19920;-74
2021/04/30 10:26:54;;;;;;;;;;;10.40;81.60;;;;;;5061016;28;21128;-74
2021/04/30 10:29:23;;;;;;;;;;;10.10;82.00;;;;;;5059438;28;20381;-73
2021/04/30 10:31:50;;;;;;;;;;;9.90;82.40;;;;;;5046039;28;19917;-74
2021/04/30 10:34:44;;;;;;;;;;;9.70;83.30;;;;;;5070109;28;20339;-75
2021/04/30 10:37:11;;;;;;;;;;;9.40;83.80;;;;;;5066533;28;19919;-74
2021/04/30 10:39:37;;;;;;;;;;;9.40;84.30;;;;;;5075478;28;20309;-74
2021/04/30 10:42:10;;;;;;;;;;;9.10;85.10;;;;;;5068519;28;19965;-73
2021/04/30 10:44:41;;;;;;;;;;;8.70;87.10;;;;;;5058771;28;20305;-73
2021/04/30 10:47:12;;;;;;;;;;;8.50;89.60;;;;;;5066860;28;19923;-73
2021/04/30 10:49:38;;;;;;;;;;;8.20;91.70;;;;;;5076986;28;19917;-74
2021/04/30 10:52:04;;;;;;;;;;;8.00;92.00;;;;;;5076081;28;19913;-73
2021/04/30 10:54:30;;;;;;;;;;;7.80;92.60;;;;;;5053112;28;19920;-73
2021/04/30 10:57:00;;;;;;;;;;;7.40;93.40;;;;;;5074732;28;19912;-73
2021/04/30 10:59:41;;;;;;;;;;;7.20;93.60;;;;;;5056581;28;20006;-72
2021/04/30 11:02:09;;;;;;;;;;;7.00;94.50;;;;;;5059365;28;19956;-73
2021/04/30 11:04:37;;;;;;;;;;;6.90;94.80;;;;;;5051019;28;20513;-72
2021/04/30 11:07:03;;;;;;;;;;;6.80;94.80;;;;;;5068597;28;19916;-73
2021/04/30 11:09:33;;;;;;;;;;;6.80;94.60;;;;;;5059932;28;19923;-72
2021/04/30 11:12:19;;;;;;;;;;;6.80;94.50;;;;;;5076777;28;20300;-72
2021/04/30 11:15:00;;;;;;;;;;;6.70;95.80;;;;;;5058896;28;19912;-70
2021/04/30 11:17:44;;;;;;;;;;;6.60;95.20;;;;;;5076130;28;20006;-69
2021/04/30 11:20:10;;;;;;;;;;;6.60;95.20;;;;;;5078479;28;20285;-71
2021/04/30 11:22:35;;;;;;;;;;;6.40;94.90;;;;;;5074805;28;20266;-71
2021/04/30 11:25:02;;;;;;;;;;;6.30;95.40;;;;;;5058828;28;20008;-71
2021/04/30 11:27:31;;;;;;;;;;;6.30;95.00;;;;;;5077073;28;19954;-70
2021/04/30 11:30:16;;;;;;;;;;;6.20;95.90;;;;;;5059548;28;20019;-70
2021/04/30 11:32:42;;;;;;;;;;;6.00;95.30;;;;;;5059381;28;19970;-70
2021/04/30 11:35:11;;;;;;;;;;;5.90;95.20;;;;;;5074648;28;19917;-71
2021/04/30 11:37:37;;;;;;;;;;;5.90;95.20;;;;;;5071886;28;20298;-71
2021/04/30 11:40:02;;;;;;;;;;;5.90;95.70;;;;;;5075593;28;19944;-71
2021/04/30 11:42:29;;;;;;;;;;;5.80;95.40;;;;;;5074691;28;19912;-71
2021/04/30 11:44:55;;;;;;;;;;;5.80;96.10;;;;;;5057707;28;19982;-71
2021/04/30 11:47:30;;;;;;;;;;;5.70;95.40;;;;;;5055991;28;19913;-72
2021/04/30 11:49:56;;;;;;;;;;;5.60;95.70;;;;;;5070804;28;19923;-71
2021/04/30 11:52:28;;;;;;;;;;;5.50;95.70;;;;;;5073941;28;20592;-71
2021/04/30 11:54:59;;;;;;;;;;;5.40;95.70;;;;;;5075623;28;19913;-71
2021/04/30 11:57:25;;;;;;;;;;;5.30;95.70;;;;;;5075810;28;19936;-72
2021/04/30 11:59:51;;;;;;;;;;;5.40;95.60;;;;;;5076718;28;19916;-71
2021/04/30 12:02:18;;;;;;;;;;;5.40;95.80;;;;;;5076697;28;19920;-72
2021/04/30 12:04:46;;;;;;;;;;;5.40;95.70;;;;;;5076577;28;20205;-71
2021/04/30 12:07:13;;;;;;;;;;;5.30;96.40;;;;;;5076223;28;19947;-71
2021/04/30 12:09:38;;;;;;;;;;;5.10;95.90;;;;;;5077290;28;20221;-71
2021/04/30 12:12:10;;;;;;;;;;;5.00;95.80;;;;;;5077378;28;19999;-71
2021/04/30 12:14:49;;;;;;;;;;;4.90;95.70;;;;;;5077084;28;19939;-71
2021/04/30 12:17:26;;;;;;;;;;;4.80;95.80;;;;;;5076936;28;19916;-72
2021/04/30 12:19:52;;;;;;;;;;;4.80;95.80;;;;;;5077659;28;19958;-73
2021/04/30 12:22:18;;;;;;;;;;;4.70;95.80;;;;;;5075827;28;19916;-71
2021/04/30 12:24:43;;;;;;;;;;;4.70;95.80;;;;;;5076915;28;20012;-71
2021/04/30 12:27:09;;;;;;;;;;;4.80;96.10;;;;;;5076828;28;19913;-72
2021/04/30 12:29:34;;;;;;;;;;;4.80;95.80;;;;;;5077194;28;19917;-72
2021/04/30 12:32:00;;;;;;;;;;;4.80;95.80;;;;;;5058877;28;19916;-72
2021/04/30 12:34:26;;;;;;;;;;;4.90;96.00;;;;;;5076776;28;20293;-71
2021/04/30 12:36:51;;;;;;;;;;;4.80;96.30;;;;;;5074520;28;19967;-72
2021/04/30 12:39:17;;;;;;;;;;;4.70;96.10;;;;;;5055878;28;19972;-71
2021/04/30 12:41:49;;;;;;;;;;;4.80;96.20;;;;;;5061959;28;20355;-72
2021/04/30 12:44:14;;;;;;;;;;;4.60;96.40;;;;;;5076711;28;20226;-71
2021/04/30 12:46:41;;;;;;;;;;;4.50;95.80;;;;;;5076885;28;19927;-71
2021/04/30 12:49:14;;;;;;;;;;;4.50;96.00;;;;;;5076438;28;19913;-72
2021/04/30 12:51:40;;;;;;;;;;;4.40;95.90;;;;;;5072556;28;19920;-72
2021/04/30 12:54:06;;;;;;;;;;;4.50;95.70;;;;;;5072951;28;19917;-72
2021/04/30 12:56:34;;;;;;;;;;;4.60;96.00;;;;;;5076404;28;19924;-73
2021/04/30 12:59:05;;;;;;;;;;;4.50;96.20;;;;;;5076408;28;19962;-73
2021/04/30 13:01:31;;;;;;;;;;;4.40;96.00;;;;;;5058030;28;19913;-72
2021/04/30 13:03:57;;;;;;;;;;;4.40;95.80;;;;;;5075374;28;19962;-72
2021/04/30 13:06:23;;;;;;;;;;;4.40;95.80;;;;;;5075934;28;19948;-73
2021/04/30 13:08:49;;;;;;;;;;;4.40;95.90;;;;;;5075379;28;20325;-73
2021/04/30 13:11:18;;;;;;;;;;;4.40;96.30;;;;;;5076416;28;19908;-73
2021/04/30 13:13:57;;;;;;;;;;;4.20;96.40;;;;;;5056228;28;19915;-72
2021/04/30 13:16:36;;;;;;;;;;;4.20;95.90;;;;;;5100706;27;19921;-71
2021/04/30 13:19:04;;;;;;;;;;;4.20;95.90;;;;;;5113463;28;19962;-69
2021/04/30 13:21:30;;;;;;;;;;;4.30;96.30;;;;;;5112599;28;19912;-71
2021/04/30 13:24:08;;;;;;;;;;;4.30;96.10;;;;;;5112047;28;19912;-70
2021/04/30 13:26:33;;;;;;;;;;;4.30;96.10;;;;;;5111561;28;20221;-70
2021/04/30 13:29:14;;;;;;;;;;;4.40;95.90;;;;;;5113430;28;19908;-71
2021/04/30 13:31:41;;;;;;;;;;;4.40;96.10;;;;;;5113396;28;19947;-71
2021/04/30 13:34:08;;;;;;;;;;;4.40;96.00;;;;;;5112624;28;19912;-70
2021/04/30 13:36:46;;;;;;;;;;;4.40;96.10;;;;;;5109793;28;19997;-69
2021/04/30 13:39:12;;;;;;;;;;;4.40;95.90;;;;;;5113088;28;19916;-69
2021/04/30 13:41:37;;;;;;;;;;;4.50;96.00;;;;;;5112962;28;19919;-69
2021/04/30 13:44:16;;;;;;;;;;;4.60;96.40;;;;;;5113018;28;20296;-71
2021/04/30 13:46:57;;;;;;;;;;;4.50;96.40;;;;;;5112138;28;19920;-71
2021/04/30 13:49:41;;;;;;;;;;;4.50;96.50;;;;;;5111561;28;19912;-72
2021/04/30 13:52:07;;;;;;;;;;;4.40;96.40;;;;;;5111737;28;20216;-72
2021/04/30 13:54:32;;;;;;;;;;;4.30;96.00;;;;;;5111990;28;19916;-71
2021/04/30 13:56:58;;;;;;;;;;;4.50;96.10;;;;;;5112897;28;19908;-71
2021/04/30 13:59:37;;;;;;;;;;;4.40;96.20;;;;;;5112627;28;19912;-71
2021/04/30 14:02:03;;;;;;;;;;;4.50;96.10;;;;;;5112496;28;19912;-71
2021/04/30 14:04:29;;;;;;;;;;;4.60;96.60;;;;;;5111481;28;19934;-70
2021/04/30 14:06:54;;;;;;;;;;;4.50;96.10;;;;;;5111047;28;20312;-71
2021/04/30 14:09:20;;;;;;;;;;;4.40;96.70;;;;;;5112052;28;19919;-70
2021/04/30 14:11:46;;;;;;;;;;;4.50;96.00;;;;;;5112539;28;19915;-70
2021/04/30 14:14:13;;;;;;;;;;;4.60;96.50;;;;;;5112119;28;19923;-70
2021/04/30 14:16:39;;;;;;;;;;;4.60;97.30;;;;;;5111692;28;19916;-71
2021/04/30 14:19:04;;;;;;;;;;;4.50;96.60;;;;;;5112159;28;19912;-70
2021/04/30 14:21:30;;;;;;;;;;;4.50;96.20;;;;;;5110592;28;20288;-70
2021/04/30 14:23:57;;;;;;;;;;;4.50;96.40;;;;;;5111943;28;19912;-70
2021/04/30 14:26:23;;;;;;;;;;;4.70;96.30;;;;;;5106313;28;19920;-71
2021/04/30 14:28:49;;;;;;;;;;;4.90;97.10;;;;;;5098439;28;20030;-70